Time;durP1;ratioP1;P1;durP2;ratioP2;P2;SDS_P1;SDS_P2;PMS_P1;PMS_P2;Temp;Humidity;BMP_temperature;BMP_pressure;BME280_temperature;BME280_humidity;BME280_pressure;Samples;Min_cycle;Max_cycle;Signal;HPM_P1;HPM_P2
2021/07/07 00:00:47;;;;;;;4.23;1.70;;;;;;;14.78;81.26;101182.38;5076923;28;20055;-39
2021/07/07 00:03:12;;;;;;;2.97;1.30;;;;;;;14.74;80.85;101181.25;5076837;28;20104;-40
2021/07/07 00:05:38;;;;;;;4.90;1.60;;;;;;;14.81;80.50;101181.06;5077131;28;20017;-39
2021/07/07 00:08:03;;;;;;;3.70;1.60;;;;;;;14.74;81.18;101174.94;5076784;28;20336;-39
2021/07/07 00:10:33;;;;;;;8.30;1.90;;;;;;;14.75;81.08;101177.44;5077279;28;20674;-39
2021/07/07 00:12:59;;;;;;;6.05;1.48;;;;;;;14.68;81.41;101179.50;5076879;28;20089;-39
2021/07/07 00:15:27;;;;;;;;;;;;;;;14.85;80.21;101184.94;5078189;28;20107;-39
2021/07/07 00:17:53;;;;;;;3.38;1.67;;;;;;;14.65;81.01;101175.41;5077235;28;19969;-39
2021/07/07 00:20:20;;;;;;;5.07;1.87;;;;;;;14.62;81.36;101178.59;5077083;28;20437;-39
2021/07/07 00:22:45;;;;;;;3.30;1.65;;;;;;;14.58;80.80;101171.19;5076866;28;20098;-39
2021/07/07 00:25:11;;;;;;;4.32;1.73;;;;;;;14.56;81.53;101166.00;5077269;28;20029;-39
2021/07/07 00:27:37;;;;;;;4.90;1.67;;;;;;;14.51;81.05;101163.22;5077149;28;20433;-39
2021/07/07 00:30:04;;;;;;;5.18;2.00;;;;;;;14.45;81.47;101169.63;5109467;28;20040;-39
2021/07/07 00:32:30;;;;;;;6.57;2.13;;;;;;;14.49;81.93;101167.25;5074531;28;20036;-39
2021/07/07 00:34:55;;;;;;;3.20;1.92;;;;;;;14.47;82.09;101166.66;5077157;28;20161;-39
2021/07/07 00:37:20;;;;;;;4.77;1.60;;;;;;;14.48;81.67;101166.41;5076731;28;20044;-39
2021/07/07 00:39:46;;;;;;;6.30;2.00;;;;;;;14.40;81.58;101162.22;5076083;28;20271;-39
2021/07/07 00:42:11;;;;;;;8.57;1.67;;;;;;;14.36;81.79;101168.41;5076055;28;20028;-40
2021/07/07 00:44:38;;;;;;;3.67;1.87;;;;;;;14.32;81.94;101168.06;5076400;28;20066;-39
2021/07/07 00:47:04;;;;;;;4.03;1.70;;;;;;;14.26;82.08;101171.78;5076918;28;20565;-39
2021/07/07 00:49:30;;;;;;;8.52;2.10;;;;;;;14.20;82.08;101182.81;5075526;28;20021;-44
2021/07/07 00:51:55;;;;;;;4.63;1.70;;;;;;;14.22;82.53;101177.97;5076545;28;20033;-39
2021/07/07 00:54:23;;;;;;;3.97;2.00;;;;;;;14.17;82.64;101171.34;5076127;28;20078;-39
2021/07/07 00:56:50;;;;;;;6.05;2.10;;;;;;;14.24;82.63;101175.81;5076697;28;20322;-39
2021/07/07 00:59:19;;;;;;;5.45;2.10;;;;;;;14.14;83.41;101176.44;5075576;28;20029;-39
2021/07/07 01:01:44;;;;;;;3.35;1.52;;;;;;;14.22;82.23;101180.69;5076112;28;20025;-39
2021/07/07 01:04:10;;;;;;;3.03;1.95;;;;;;;14.13;82.64;101172.91;5076245;28;20462;-39
2021/07/07 01:06:35;;;;;;;5.78;2.72;;;;;;;14.19;82.88;101184.69;5076023;28;20051;-39
2021/07/07 01:09:02;;;;;;;4.60;2.13;;;;;;;14.22;82.65;101183.41;5076197;28;20024;-39
2021/07/07 01:11:31;;;;;;;3.83;2.08;;;;;;;14.06;82.80;101180.44;5076132;28;20027;-39
2021/07/07 01:13:56;;;;;;;5.65;2.10;;;;;;;14.12;83.15;101174.00;5076109;28;20070;-39
2021/07/07 01:16:22;;;;;;;4.38;2.30;;;;;;;14.20;82.80;101180.06;5076134;28;20028;-39
2021/07/07 01:18:47;;;;;;;7.73;2.30;;;;;;;14.15;82.79;101172.66;5075829;28;20509;-39
2021/07/07 01:21:14;;;;;;;4.93;2.22;;;;;;;14.21;83.43;101182.56;5075704;28;20025;-39
2021/07/07 01:23:39;;;;;;;4.70;2.03;;;;;;;14.10;83.37;101170.72;5075411;28;20044;-39
2021/07/07 01:26:05;;;;;;;5.25;2.00;;;;;;;14.11;83.42;101177.78;5074273;28;20143;-39
2021/07/07 01:28:32;;;;;;;5.03;1.92;;;;;;;14.19;82.99;101173.81;5076056;28;20029;-39
2021/07/07 01:30:57;;;;;;;5.38;1.98;;;;;;;14.08;83.72;101167.38;5075481;28;20031;-39
2021/07/07 01:33:22;;;;;;;4.20;2.10;;;;;;;14.05;83.52;101167.88;5075749;28;20020;-39
2021/07/07 01:35:48;;;;;;;3.30;2.00;;;;;;;14.05;83.58;101175.22;5075633;28;20266;-39
2021/07/07 01:38:13;;;;;;;3.97;2.20;;;;;;;14.08;83.61;101167.38;5075323;28;20822;-39
2021/07/07 01:40:38;;;;;;;2.37;1.93;;;;;;;14.03;83.32;101163.75;5075644;28;20372;-39
2021/07/07 01:43:04;;;;;;;5.00;2.55;;;;;;;14.06;83.40;101166.81;5074988;28;20354;-39
2021/07/07 01:45:29;;;;;;;5.07;2.10;;;;;;;14.01;83.62;101166.75;5075759;28;20056;-39
2021/07/07 01:47:55;;;;;;;4.55;2.15;;;;;;;14.05;83.48;101167.06;5074811;28;20113;-39
2021/07/07 01:50:22;;;;;;;4.00;1.90;;;;;;;14.06;83.55;101174.16;5075406;28;20023;-39
2021/07/07 01:52:48;;;;;;;4.35;2.03;;;;;;;14.00;83.75;101170.50;5075547;28;20161;-39
2021/07/07 01:55:15;;;;;;;4.43;2.10;;;;;;;14.02;83.21;101170.28;5075517;28;20048;-39
2021/07/07 01:57:48;;;;;;;5.30;1.88;;;;;;;13.97;83.58;101171.00;5075109;28;20020;-39
2021/07/07 02:00:26;;;;;;;6.20;2.10;;;;;;;14.02;83.58;101173.00;5075641;28;20024;-39
2021/07/07 02:02:52;;;;;;;4.70;2.28;;;;;;;13.99;83.31;101168.03;5075094;28;20027;-39
2021/07/07 02:05:20;;;;;;;3.25;2.20;;;;;;;13.93;83.70;101172.56;5074830;28;20036;-39
2021/07/07 02:07:46;;;;;;;5.40;2.10;;;;;;;13.95;83.43;101167.69;5075185;28;20033;-40
2021/07/07 02:10:13;;;;;;;3.10;1.93;;;;;;;13.93;83.53;101163.59;5074726;28;20372;-39
2021/07/07 02:12:38;;;;;;;5.47;1.98;;;;;;;13.89;83.61;101165.97;5074571;28;20137;-39
2021/07/07 02:15:16;;;;;;;5.72;1.98;;;;;;;13.89;83.75;101171.41;5074577;28;20484;-39
2021/07/07 02:17:43;;;;;;;5.38;1.92;;;;;;;13.86;83.93;101166.47;5075033;28;20021;-39
2021/07/07 02:20:10;;;;;;;4.32;2.00;;;;;;;13.90;84.05;101170.34;5075005;28;20157;-39
2021/07/07 02:22:37;;;;;;;3.70;2.13;;;;;;;13.81;84.24;101175.38;5074579;28;20444;-41
2021/07/07 02:25:11;;;;;;;3.88;2.25;;;;;;;13.91;84.14;101174.72;5074378;28;20103;-39
2021/07/07 02:27:37;;;;;;;5.00;2.10;;;;;;;13.81;84.08;101172.66;5074639;28;20401;-39
2021/07/07 02:30:05;;;;;;;3.67;1.80;;;;;;;13.88;84.58;101176.03;5074049;28;20371;-39
2021/07/07 02:32:30;;;;;;;5.32;2.13;;;;;;;13.87;84.25;101176.28;5074459;28;20082;-39
2021/07/07 02:34:55;;;;;;;3.27;1.73;;;;;;;13.85;84.48;101167.53;5074788;28;20399;-39
2021/07/07 02:37:21;;;;;;;4.67;1.83;;;;;;;13.87;84.50;101159.97;5074976;28;20584;-39
2021/07/07 02:39:46;;;;;;;2.45;1.77;;;;;;;13.88;84.71;101173.31;5074700;28;20025;-39
2021/07/07 02:42:12;;;;;;;5.30;2.20;;;;;;;13.91;84.65;101175.53;5073856;28;20453;-39
2021/07/07 02:44:37;;;;;;;4.40;1.83;;;;;;;14.00;84.63;101175.13;5074326;28;20274;-39
2021/07/07 02:47:03;;;;;;;5.43;2.00;;;;;;;13.95;85.40;101175.84;5074052;28;20655;-39
2021/07/07 02:49:28;;;;;;;3.03;1.67;;;;;;;14.04;84.63;101174.38;5074018;28;20414;-39
2021/07/07 02:51:53;;;;;;;5.07;1.83;;;;;;;14.01;85.02;101183.06;5074634;28;20089;-39
2021/07/07 02:54:19;;;;;;;3.13;1.73;;;;;;;14.02;85.07;101171.09;5074477;28;20381;-39
2021/07/07 02:56:44;;;;;;;6.47;2.00;;;;;;;14.04;84.63;101179.81;5073358;28;20107;-39
2021/07/07 02:59:09;;;;;;;4.53;2.10;;;;;;;13.98;84.57;101178.09;5073828;28;20278;-39
2021/07/07 03:01:35;;;;;;;3.67;2.20;;;;;;;14.03;85.16;101175.47;5073887;28;20293;-39
2021/07/07 03:04:00;;;;;;;5.65;2.10;;;;;;;14.02;85.05;101178.44;5073831;28;20024;-39
2021/07/07 03:06:26;;;;;;;4.67;1.80;;;;;;;14.03;85.19;101177.38;5074357;28;20020;-39
2021/07/07 03:08:51;;;;;;;5.22;2.45;;;;;;;14.03;85.09;101178.19;5073765;28;20349;-39
2021/07/07 03:11:16;;;;;;;4.25;2.00;;;;;;;14.07;85.01;101178.53;5073516;28;20025;-39
2021/07/07 03:13:42;;;;;;;6.63;2.20;;;;;;;14.00;84.98;101181.38;5073960;28;20024;-39
2021/07/07 03:16:07;;;;;;;6.37;2.43;;;;;;;14.11;84.84;101180.50;5073750;28;20017;-39
2021/07/07 03:18:33;;;;;;;4.00;2.20;;;;;;;14.00;85.13;101181.38;5073807;28;20274;-39
2021/07/07 03:20:58;;;;;;;5.28;2.17;;;;;;;13.96;84.91;101176.69;5073624;28;20372;-39
2021/07/07 03:23:24;;;;;;;4.32;2.20;;;;;;;13.99;85.21;101176.19;5074748;28;20459;-39
2021/07/07 03:25:52;;;;;;;5.22;2.83;;;;;;;13.89;84.83;101183.09;5073578;28;20096;-39
2021/07/07 03:28:19;;;;;;;4.15;2.00;;;;;;;13.90;84.96;101187.47;5073543;28;20063;-39
2021/07/07 03:30:45;;;;;;;8.40;2.28;;;;;;;13.86;84.71;101190.94;5073508;28;20021;-39
2021/07/07 03:33:10;;;;;;;6.25;3.08;;;;;;;13.88;85.03;101199.66;5073187;28;20059;-39
2021/07/07 03:35:36;;;;;;;7.80;2.80;;;;;;;13.91;84.68;101193.75;5073436;28;20052;-39
2021/07/07 03:38:02;;;;;;;6.77;2.20;;;;;;;13.83;84.94;101207.72;5073357;28;20460;-39
2021/07/07 03:40:28;;;;;;;;;;;;;;;13.97;83.68;101206.38;5073603;28;20247;-39
2021/07/07 03:42:53;;;;;;;3.78;2.40;;;;;;;13.84;84.63;101204.75;5073318;28;19911;-39
2021/07/07 03:45:20;;;;;;;5.97;2.55;;;;;;;13.77;84.96;101208.72;5073480;28;20029;-39
2021/07/07 03:47:45;;;;;;;;;;;;;;;13.92;84.02;101200.84;5073515;28;20503;-39
2021/07/07 03:50:11;;;;;;;3.95;2.10;;;;;;;13.83;84.92;101207.72;5074129;28;19904;-39
2021/07/07 03:52:37;;;;;;;6.28;2.97;;;;;;;13.81;85.41;101209.84;5073285;28;20024;-39
2021/07/07 03:55:14;;;;;;;5.07;2.60;;;;;;;13.83;85.29;101216.72;5073625;28;20099;-39
2021/07/07 03:57:40;;;;;;;5.85;2.50;;;;;;;13.85;85.32;101213.75;5073484;28;20045;-39
2021/07/07 04:00:08;;;;;;;4.28;2.53;;;;;;;13.86;85.09;101208.06;5073494;28;20075;-39
2021/07/07 04:02:33;;;;;;;4.22;2.85;;;;;;;13.88;85.55;101218.69;5073689;28;20047;-39
2021/07/07 04:04:59;;;;;;;7.23;3.10;;;;;;;13.85;85.57;101219.16;5073550;28;20020;-39
2021/07/07 04:07:24;;;;;;;6.33;3.07;;;;;;;13.93;85.38;101224.22;5072943;28;20571;-39
2021/07/07 04:09:49;;;;;;;8.87;2.93;;;;;;;13.89;85.27;101229.31;5073200;28;20497;-39
2021/07/07 04:12:15;;;;;;;6.60;3.60;;;;;;;13.88;85.38;101222.25;5073168;28;20731;-39
2021/07/07 04:14:40;;;;;;;8.63;2.80;;;;;;;13.84;85.11;101221.06;5073465;28;20449;-39
2021/07/07 04:17:06;;;;;;;5.88;3.00;;;;;;;13.87;85.14;101230.66;5073916;28;20407;-39
2021/07/07 04:19:31;;;;;;;8.37;3.03;;;;;;;13.89;85.54;101233.94;5073228;28;20338;-39
2021/07/07 04:21:56;;;;;;;5.88;3.20;;;;;;;13.85;85.26;101232.75;5073796;28;20450;-39
2021/07/07 04:24:22;;;;;;;5.40;3.43;;;;;;;13.87;85.21;101236.09;5076163;28;20492;-39
2021/07/07 04:26:50;;;;;;;5.43;3.10;;;;;;;13.86;85.80;101239.88;5076392;28;20737;-39
2021/07/07 04:29:15;;;;;;;7.50;2.75;;;;;;;13.89;84.96;101242.09;5076588;28;20039;-39
2021/07/07 04:31:41;;;;;;;6.88;3.22;;;;;;;13.85;85.31;101240.91;5076594;28;20016;-39
2021/07/07 04:34:06;;;;;;;8.75;3.22;;;;;;;13.86;84.96;101245.31;5076529;28;20103;-39
2021/07/07 04:36:32;;;;;;;6.10;2.93;;;;;;;13.87;84.90;101246.97;5076586;28;20437;-39
2021/07/07 04:38:58;;;;;;;5.78;3.30;;;;;;;13.87;85.40;101245.06;5076351;28;20032;-39
2021/07/07 04:41:23;;;;;;;6.82;3.63;;;;;;;13.84;85.25;101242.81;5077302;28;20028;-39
2021/07/07 04:43:49;;;;;;;10.10;3.33;;;;;;;13.94;85.37;101244.91;5076353;28;20480;-39
2021/07/07 04:46:14;;;;;;;8.32;3.70;;;;;;;13.98;85.77;101246.06;5076931;28;20055;-39
2021/07/07 04:48:40;;;;;;;7.25;3.08;;;;;;;13.99;85.10;101249.59;5075822;28;20059;-39
2021/07/07 04:51:06;;;;;;;8.10;3.47;;;;;;;14.09;85.34;101258.78;5076367;28;20031;-39
2021/07/07 04:53:31;;;;;;;7.00;3.30;;;;;;;14.11;85.04;101258.56;5076174;28;20016;-39
2021/07/07 04:55:56;;;;;;;5.53;2.97;;;;;;;14.12;84.96;101260.19;5076244;28;20029;-39
2021/07/07 04:58:25;;;;;;;4.20;3.10;;;;;;;14.21;84.92;101258.72;5076124;28;20321;-39
2021/07/07 05:00:51;;;;;;;8.18;3.13;;;;;;;14.26;85.21;101255.28;5076898;28;20027;-39
2021/07/07 05:03:17;;;;;;;8.07;3.53;;;;;;;14.34;85.24;101258.41;5075980;28;20056;-39
2021/07/07 05:05:42;;;;;;;6.50;3.30;;;;;;;14.42;84.47;101251.75;5076378;28;20059;-39
2021/07/07 05:08:07;;;;;;;9.40;3.37;;;;;;;14.43;83.95;101256.09;5075988;28;20025;-39
2021/07/07 05:10:33;;;;;;;5.40;3.17;;;;;;;14.46;84.18;101255.63;5076478;28;20721;-39
2021/07/07 05:12:59;;;;;;;6.70;3.30;;;;;;;14.49;84.67;101262.47;5075822;28;20033;-39
2021/07/07 05:15:24;;;;;;;9.27;3.55;;;;;;;14.49;83.91;101271.47;5076153;28;20025;-39
2021/07/07 05:17:50;;;;;;;6.63;3.20;;;;;;;14.50;84.35;101262.25;5075713;28;20021;-39
2021/07/07 05:20:17;;;;;;;8.48;3.50;;;;;;;14.53;84.43;101269.91;5076282;28;20030;-39
2021/07/07 05:22:44;;;;;;;10.57;4.22;;;;;;;14.57;83.47;101273.78;5075453;28;20032;-39
2021/07/07 05:25:13;;;;;;;9.00;3.53;;;;;;;14.59;83.46;101277.09;5076156;28;20059;-39
2021/07/07 05:27:38;;;;;;;10.30;3.50;;;;;;;14.72;83.46;101278.66;5075841;28;20032;-39
2021/07/07 05:30:06;;;;;;;10.00;4.10;;;;;;;14.74;83.65;101273.81;5075539;28;20024;-39
2021/07/07 05:32:31;;;;;;;6.15;3.63;;;;;;;14.82;83.36;101275.25;5075403;28;20294;-39
2021/07/07 05:34:57;;;;;;;7.93;3.85;;;;;;;14.87;83.37;101280.78;5075578;28;20020;-39
2021/07/07 05:37:23;;;;;;;7.35;3.03;;;;;;;14.95;83.19;101280.38;5076167;28;20020;-39
2021/07/07 05:39:50;;;;;;;10.05;3.05;;;;;;;14.98;82.95;101284.47;5075233;28;20028;-39
2021/07/07 05:42:17;;;;;;;8.65;3.30;;;;;;;14.98;82.80;101268.97;5075254;28;20039;-39
2021/07/07 05:44:42;;;;;;;4.85;3.00;;;;;;;15.06;82.56;101270.44;5075186;28;20097;-39
2021/07/07 05:47:08;;;;;;;6.93;2.93;;;;;;;15.08;82.07;101271.88;5075489;28;20112;-39
2021/07/07 05:49:33;;;;;;;4.78;2.63;;;;;;;15.17;81.84;101272.25;5075171;28;20115;-39
2021/07/07 05:51:58;;;;;;;6.18;2.97;;;;;;;15.20;81.84;101282.66;5075687;28;20032;-39
2021/07/07 05:54:24;;;;;;;5.80;2.73;;;;;;;15.27;83.07;101287.91;5075013;28;20021;-39
2021/07/07 05:56:49;;;;;;;9.10;3.08;;;;;;;15.33;82.05;101286.91;5075021;28;20360;-45
2021/07/07 05:59:14;;;;;;;10.80;2.90;;;;;;;15.30;81.07;101285.50;5075027;28;20029;-39
2021/07/07 06:01:40;;;;;;;10.47;3.10;;;;;;;15.37;81.37;101293.50;5074665;28;20258;-39
2021/07/07 06:04:05;;;;;;;10.15;2.90;;;;;;;15.38;81.31;101295.97;5074561;28;20032;-39
2021/07/07 06:06:30;;;;;;;7.32;2.55;;;;;;;15.44;81.92;101292.25;5074533;28;20400;-39
2021/07/07 06:08:56;;;;;;;7.57;3.27;;;;;;;15.63;81.24;101294.66;5074765;28;20051;-39
2021/07/07 06:11:21;;;;;;;7.35;3.05;;;;;;;15.80;80.63;101298.16;5075220;28;20329;-39
2021/07/07 06:13:47;;;;;;;9.88;2.72;;;;;;;15.98;79.67;101291.56;5075412;28;20085;-39
2021/07/07 06:16:12;;;;;;;8.40;3.05;;;;;;;16.05;79.02;101289.44;5074656;28;20032;-39
2021/07/07 06:18:37;;;;;;;9.07;3.03;;;;;;;16.21;79.41;101285.81;5073515;28;20025;-39
2021/07/07 06:21:02;;;;;;;10.30;3.10;;;;;;;16.35;78.02;101293.59;5074804;28;20032;-39
2021/07/07 06:23:28;;;;;;;6.43;2.83;;;;;;;16.52;77.96;101299.72;5074960;28;20358;-39
2021/07/07 06:25:53;;;;;;;7.73;2.90;;;;;;;16.69;77.25;101294.16;5075037;28;20258;-39
2021/07/07 06:28:18;;;;;;;9.20;2.90;;;;;;;16.83;76.47;101297.28;5074352;28;20056;-39
2021/07/07 06:30:44;;;;;;;9.13;2.60;;;;;;;16.91;76.08;101305.00;5074410;28;20494;-39
2021/07/07 06:33:11;;;;;;;7.20;2.30;;;;;;;16.97;74.60;101310.22;5074867;28;20708;-40
2021/07/07 06:35:36;;;;;;;6.95;2.88;;;;;;;17.11;75.10;101310.59;5074214;28;20104;-40
2021/07/07 06:38:03;;;;;;;8.57;2.83;;;;;;;17.16;73.36;101310.63;5074062;28;20024;-39
2021/07/07 06:40:30;;;;;;;7.35;2.83;;;;;;;17.20;74.25;101321.88;5074664;28;20017;-39
2021/07/07 06:42:55;;;;;;;7.68;2.80;;;;;;;17.18;73.01;101313.13;5074302;28;20560;-39
2021/07/07 06:45:23;;;;;;;4.63;2.58;;;;;;;17.28;73.57;101318.66;5073652;28;20020;-40
2021/07/07 06:47:49;;;;;;;9.02;2.80;;;;;;;17.34;73.33;101317.59;5073789;28;20050;-40
2021/07/07 06:50:16;;;;;;;9.25;2.55;;;;;;;17.44;72.90;101327.75;5073735;28;20024;-40
2021/07/07 06:52:42;;;;;;;7.75;2.50;;;;;;;17.57;72.30;101330.00;5074185;28;20020;-40
2021/07/07 06:55:08;;;;;;;;;;;;;;;17.72;73.59;101327.34;5075224;28;20020;-40
2021/07/07 06:57:34;;;;;;;6.95;2.42;;;;;;;17.73;71.67;101331.75;5073894;28;20302;-40
2021/07/07 07:00:07;;;;;;;;;;;;;;;17.84;72.25;101324.41;5075105;28;20028;-40
2021/07/07 07:02:32;;;;;;;4.60;2.05;;;;;;;17.87;71.08;101336.75;5073537;28;19908;-40
2021/07/07 07:04:58;;;;;;;6.82;2.00;;;;;;;17.83;71.09;101335.63;5072211;28;20032;-40
2021/07/07 07:07:25;;;;;;;;;;;;;;;17.95;72.81;101345.22;5074417;28;20024;-40
2021/07/07 07:09:50;;;;;;;5.10;2.38;;;;;;;17.98;71.59;101341.16;5074013;28;19930;-40
2021/07/07 07:12:15;;;;;;;6.40;2.22;;;;;;;18.02;72.01;101345.81;5073755;28;20111;-40
2021/07/07 07:14:41;;;;;;;;;;;;;;;18.15;72.02;101347.22;5073749;28;20103;-40
2021/07/07 07:17:06;;;;;;;6.13;2.33;;;;;;;18.10;70.61;101349.09;5074218;28;19959;-40
2021/07/07 07:19:31;;;;;;;;;;;;;;;18.16;71.05;101357.09;5074603;28;20103;-40
2021/07/07 07:21:57;;;;;;;9.10;2.40;;;;;;;18.12;70.03;101355.16;5073346;28;19912;-40
2021/07/07 07:24:22;;;;;;;;;;;;;;;18.22;71.12;101360.66;5074381;28;20333;-40
2021/07/07 07:26:47;;;;;;;6.72;2.55;;;;;;;18.21;71.16;101357.09;5073555;28;20283;-40
2021/07/07 07:29:13;;;;;;;;;;;;;;;18.35;71.47;101362.03;5074299;28;20028;-40
2021/07/07 07:31:39;;;;;;;7.65;2.22;;;;;;;18.40;70.82;101362.09;5073766;28;19951;-40
2021/07/07 07:34:04;;;;;;;;;;;;;;;18.50;69.76;101367.56;5073925;28;20356;-40
2021/07/07 07:36:29;;;;;;;7.13;2.20;;;;;;;18.46;70.15;101370.03;5073543;28;19911;-40
2021/07/07 07:38:59;;;;;;;;;;;;;;;18.56;70.43;101368.41;5073758;28;20293;-40
2021/07/07 07:41:30;;;;;;;8.18;2.10;;;;;;;18.56;67.99;101374.69;5074004;28;20300;-39
2021/07/07 07:43:56;;;;;;;8.27;1.95;;;;;;;18.56;68.19;101368.41;5073672;28;20117;-40
2021/07/07 07:46:25;;;;;;;7.22;2.75;;;;;;;18.64;68.08;101374.19;5073410;28;20079;-40
2021/07/07 07:48:50;;;;;;;7.82;2.35;;;;;;;18.68;68.21;101375.28;5073334;28;20024;-40
2021/07/07 07:51:15;;;;;;;;;;;;;;;18.82;68.11;101375.56;5074054;28;20025;-40
2021/07/07 07:53:41;;;;;;;7.30;2.57;;;;;;;18.83;68.29;101379.13;5073297;28;19916;-39
2021/07/07 07:56:07;;;;;;;;;;;;;;;18.94;68.32;101372.56;5073683;28;20127;-39
2021/07/07 07:58:34;;;;;;;6.13;1.97;;;;;;;18.97;66.81;101372.00;5076427;28;19908;-40
2021/07/07 08:00:59;;;;;;;6.18;2.03;;;;;;;18.98;65.91;101354.47;5077167;28;20255;-40
2021/07/07 08:03:24;;;;;;;;;;;;;;;19.16;68.13;101364.88;5077876;28;20029;-40
2021/07/07 08:05:49;;;;;;;7.77;2.07;;;;;;;19.23;66.50;101359.13;5077704;28;19904;-40
2021/07/07 08:08:14;;;;;;;;;;;;;;;19.34;66.28;101360.75;5077540;28;20465;-40
2021/07/07 08:10:40;;;;;;;7.30;2.43;;;;;;;19.31;64.75;101366.78;5077078;28;19905;-40
2021/07/07 08:13:05;;;;;;;;;;;;;;;19.43;65.74;101367.31;5077401;28;20111;-40
2021/07/07 08:15:32;;;;;;;6.85;1.60;;;;;;;19.45;63.96;101372.50;5077707;28;19990;-40
2021/07/07 08:17:57;;;;;;;6.25;1.98;;;;;;;19.44;63.17;101374.44;5076706;28;20027;-40
2021/07/07 08:20:23;;;;;;;;;;;;;;;19.58;65.05;101371.94;5077898;28;20025;-40
2021/07/07 08:22:49;;;;;;;5.13;1.80;;;;;;;19.69;64.32;101379.06;5076736;28;20348;-40
2021/07/07 08:25:14;;;;;;;;;;;;;;;19.82;64.56;101372.16;5076485;28;20090;-40
2021/07/07 08:27:40;;;;;;;6.78;2.22;;;;;;;19.84;62.40;101380.13;5076746;28;20319;-40
2021/07/07 08:30:07;;;;;;;;;;;;;;;19.95;62.15;101377.03;5077423;28;20036;-40
2021/07/07 08:32:32;;;;;;;10.13;1.85;;;;;;;20.02;61.51;101371.25;5076635;28;19954;-40
2021/07/07 08:34:57;;;;;;;;;;;;;;;20.16;61.32;101376.97;5077593;28;20044;-40
2021/07/07 08:37:23;;;;;;;9.23;2.05;;;;;;;20.12;60.23;101376.72;5076533;28;19908;-40
2021/07/07 08:39:49;;;;;;;6.05;1.98;;;;;;;20.16;59.76;101380.53;5076667;28;20025;-40
2021/07/07 08:42:14;;;;;;;;;;;;;;;20.27;60.15;101387.59;5076881;28;20171;-40
2021/07/07 08:44:42;;;;;;;7.32;2.10;;;;;;;20.19;59.74;101385.44;5076965;28;20316;-40
2021/07/07 08:47:08;;;;;;;7.72;2.13;;;;;;;20.25;59.88;101389.81;5076648;28;20021;-40
2021/07/07 08:49:33;;;;;;;;;;;;;;;20.48;61.10;101390.25;5076441;28;20081;-40
2021/07/07 08:51:58;;;;;;;6.65;1.83;;;;;;;20.57;58.26;101386.63;5075930;28;20008;-40
2021/07/07 08:54:24;;;;;;;7.55;2.08;;;;;;;20.67;59.00;101395.91;5076186;28;20020;-40
2021/07/07 08:56:49;;;;;;;5.82;1.70;;;;;;;20.73;58.25;101390.09;5075890;28;20020;-40
2021/07/07 08:59:16;;;;;;;;;;;;;;;20.83;58.27;101391.94;5077185;28;20081;-40
2021/07/07 09:02:02;;;;;;;5.82;1.95;;;;;;;20.82;58.54;101401.31;5075888;28;19908;-40
2021/07/07 09:04:34;;;;;;;8.35;1.77;;;;;;;20.69;56.93;101400.03;5076027;28;20362;-40
2021/07/07 09:07:05;;;;;;;8.63;1.73;;;;;;;20.81;58.49;101405.97;5076246;28;20020;-40
2021/07/07 09:09:45;;;;;;;5.68;1.60;;;;;;;20.88;57.82;101411.13;5074691;28;20353;-40
2021/07/07 09:12:15;;;;;;;5.40;1.63;;;;;;;20.86;57.05;101407.06;5076453;28;20024;-40
2021/07/07 09:14:42;;;;;;;7.35;1.83;;;;;;;20.72;56.87;101407.69;5075585;28;20024;-40
2021/07/07 09:17:14;;;;;;;6.00;1.92;;;;;;;20.64;57.36;101416.53;5075534;28;20031;-40
2021/07/07 09:19:40;;;;;;;4.85;1.58;;;;;;;20.58;57.41;101418.50;5075368;28;20024;-40
2021/07/07 09:22:07;;;;;;;7.43;1.83;;;;;;;20.47;57.62;101416.91;5075515;28;20126;-41
2021/07/07 09:24:35;;;;;;;6.90;2.28;;;;;;;20.39;58.23;101428.47;5076257;28;20090;-40
2021/07/07 09:27:13;;;;;;;7.43;1.73;;;;;;;20.28;59.31;101413.97;5075649;28;20036;-40
2021/07/07 09:29:44;;;;;;;5.60;1.90;;;;;;;20.42;59.87;101424.34;5076158;28;20483;-40
2021/07/07 09:32:15;;;;;;;5.20;1.90;;;;;;;20.43;58.43;101423.22;5076394;28;20024;-40
2021/07/07 09:34:41;;;;;;;6.25;1.42;;;;;;;20.41;57.19;101422.69;5075131;28;20027;-40
2021/07/07 09:37:08;;;;;;;;;;;;;;;20.52;58.50;101435.28;5076178;28;20376;-40
2021/07/07 09:39:33;;;;;;;6.53;1.67;;;;;;;20.60;57.26;101431.97;5075244;28;19958;-40
2021/07/07 09:41:58;;;;;;;;;;;;;;;20.75;57.62;101429.13;5076097;28;20052;-40
2021/07/07 09:44:24;;;;;;;8.63;1.80;;;;;;;20.70;57.81;101429.16;5075221;28;19950;-40
2021/07/07 09:46:49;;;;;;;7.57;1.90;;;;;;;20.82;58.80;101437.03;5075822;28;20033;-40
2021/07/07 09:49:15;;;;;;;5.45;1.73;;;;;;;20.76;56.85;101439.00;5075474;28;20036;-40
2021/07/07 09:51:49;;;;;;;6.70;1.58;;;;;;;20.74;56.87;101438.47;5076005;28;20063;-40
2021/07/07 09:54:15;;;;;;;5.47;1.58;;;;;;;20.73;57.10;101439.56;5075059;28;20342;-39
2021/07/07 09:56:40;;;;;;;;;;;;;;;20.97;56.46;101444.34;5075201;28;20031;-40
2021/07/07 09:59:05;;;;;;;5.07;1.40;;;;;;;21.15;56.65;101445.59;5075184;28;19908;-40
2021/07/07 10:01:31;;;;;;;;;;;;;;;21.22;57.09;101452.38;5075918;28;20024;-40
2021/07/07 10:03:58;;;;;;;6.25;1.95;;;;;;;20.97;55.32;101456.16;5074598;28;20372;-40
2021/07/07 10:06:24;;;;;;;10.73;1.40;;;;;;;20.90;56.53;101452.09;5074545;28;20021;-40
2021/07/07 10:08:51;;;;;;;6.05;1.70;;;;;;;21.02;57.85;101456.13;5074514;28;20376;-40
2021/07/07 10:11:17;;;;;;;7.55;1.40;;;;;;;21.14;56.78;101454.97;5074697;28;20036;-40
2021/07/07 10:13:43;;;;;;;;;;;;;;;21.44;55.83;101464.91;5075640;28;20028;-40
2021/07/07 10:16:08;;;;;;;5.03;1.63;;;;;;;21.68;53.31;101460.28;5074938;28;19904;-40
2021/07/07 10:18:35;;;;;;;;;;;;;;;21.99;54.96;101451.69;5074711;28;20475;-40
2021/07/07 10:21:00;;;;;;;3.83;1.50;;;;;;;21.93;53.87;101463.88;5075383;28;19908;-40
2021/07/07 10:23:26;;;;;;;4.45;1.42;;;;;;;21.69;54.09;101456.41;5074245;28;20456;-40
2021/07/07 10:25:52;;;;;;;7.00;1.83;;;;;;;21.49;55.04;101460.19;5074486;28;20025;-40
2021/07/07 10:28:19;;;;;;;2.90;1.33;;;;;;;21.23;54.89;101470.56;5074394;28;20079;-40
2021/07/07 10:30:50;;;;;;;8.02;1.55;;;;;;;21.18;56.60;101478.00;5074707;28;20082;-40
2021/07/07 10:33:18;;;;;;;5.50;1.67;;;;;;;21.20;56.62;101484.88;5074818;28;20356;-40
2021/07/07 10:35:45;;;;;;;4.53;1.30;;;;;;;21.08;55.29;101479.75;5074540;28;20023;-40
2021/07/07 10:38:12;;;;;;;4.30;1.27;;;;;;;21.01;54.47;101481.16;5074175;28;20365;-40
2021/07/07 10:40:40;;;;;;;4.13;1.30;;;;;;;20.99;54.97;101480.63;5073877;28;20051;-40
2021/07/07 10:43:07;;;;;;;4.53;1.95;;;;;;;21.02;55.77;101478.13;5074072;28;20031;-40
2021/07/07 10:45:43;;;;;;;5.88;1.90;;;;;;;21.08;55.55;101485.25;5074670;28;20032;-40
2021/07/07 10:48:29;;;;;;;4.50;1.35;;;;;;;21.16;54.57;101492.03;5074027;28;20107;-40
2021/07/07 10:51:00;;;;;;;2.80;1.38;;;;;;;21.47;52.21;101489.91;5074642;28;20033;-40
2021/07/07 10:53:27;;;;;;;3.42;1.17;;;;;;;21.71;49.83;101484.44;5074811;28;20399;-40
2021/07/07 10:55:53;;;;;;;5.80;1.40;;;;;;;22.05;50.94;101491.81;5074249;28;20031;-40
2021/07/07 10:58:25;;;;;;;5.03;1.60;;;;;;;22.10;50.07;101491.75;5074059;28;20103;-40
2021/07/07 11:00:51;;;;;;;3.65;1.20;;;;;;;22.29;49.87;101483.56;5073858;28;20064;-40
2021/07/07 11:03:20;;;;;;;5.35;1.65;;;;;;;22.34;49.85;101489.00;5073800;28;20055;-40
2021/07/07 11:05:45;;;;;;;3.53;1.20;;;;;;;22.29;48.90;101487.16;5073776;28;20534;-40
2021/07/07 11:08:19;;;;;;;5.15;1.15;;;;;;;22.29;49.69;101489.09;5073712;28;20033;-40
2021/07/07 11:10:53;;;;;;;5.68;1.42;;;;;;;22.55;50.11;101489.59;5074109;28;20029;-40
2021/07/07 11:13:18;;;;;;;3.45;1.50;;;;;;;22.81;50.68;101485.34;5073921;28;20082;-40
2021/07/07 11:15:46;;;;;;;4.15;1.60;;;;;;;22.80;50.10;101494.75;5073450;28;20103;-40
2021/07/07 11:18:17;;;;;;;4.25;1.50;;;;;;;23.02;50.69;101491.41;5073871;28;20070;-40
2021/07/07 11:20:44;;;;;;;5.25;1.58;;;;;;;23.11;50.42;101477.78;5073688;28;20050;-40
2021/07/07 11:23:11;;;;;;;7.30;1.63;;;;;;;23.14;49.75;101496.50;5073610;28;20036;-40
2021/07/07 11:25:39;;;;;;;4.15;1.58;;;;;;;23.19;48.55;101485.38;5073875;28;20028;-40
2021/07/07 11:28:16;;;;;;;4.72;1.55;;;;;;;23.33;48.26;101490.94;5073281;28;20112;-40